createdAt,value
2018-02-19T00:00:42.254Z,1.60
2018-02-19T00:03:11.153Z,1.70
2018-02-19T00:05:39.322Z,1.70
2018-02-19T00:08:08.223Z,1.70
2018-02-19T00:10:36.386Z,1.90
2018-02-19T00:13:05.282Z,1.70
2018-02-19T00:15:33.438Z,1.70
2018-02-19T00:18:02.340Z,1.70
2018-02-19T00:20:30.501Z,1.70
2018-02-19T00:22:59.407Z,1.70
2018-02-19T00:25:27.571Z,1.70
2018-02-19T00:27:56.478Z,1.70
2018-02-19T00:30:24.642Z,1.70
2018-02-19T00:32:53.541Z,1.70
2018-02-19T00:35:21.710Z,1.70
2018-02-19T00:37:49.850Z,1.60
2018-02-19T00:40:18.012Z,1.60
2018-02-19T00:42:46.149Z,1.60
2018-02-19T00:45:14.314Z,1.60
2018-02-19T00:47:42.444Z,1.70
2018-02-19T00:50:10.602Z,1.60
2018-02-19T00:52:38.732Z,1.60
2018-02-19T00:55:06.897Z,1.60
2018-02-19T00:57:35.039Z,1.60
2018-02-19T01:00:03.202Z,1.60
2018-02-19T01:02:31.337Z,1.60
2018-02-19T01:04:59.497Z,1.60
2018-02-19T01:07:27.630Z,1.60
2018-02-19T01:09:55.797Z,1.60
2018-02-19T01:12:23.925Z,1.60
2018-02-19T01:14:52.086Z,1.60
2018-02-19T01:17:20.227Z,1.60
2018-02-19T01:19:48.386Z,1.60
2018-02-19T01:22:16.523Z,1.50
2018-02-19T01:24:44.686Z,1.60
2018-02-19T01:27:12.817Z,1.50
2018-02-19T01:29:40.981Z,1.50
2018-02-19T01:32:09.115Z,1.50
2018-02-19T01:34:37.274Z,1.50
2018-02-19T01:37:05.405Z,1.50
2018-02-19T01:39:33.568Z,1.50
2018-02-19T01:42:01.706Z,1.50
2018-02-19T01:44:29.869Z,1.40
2018-02-19T01:46:58.032Z,1.40
2018-02-19T01:49:26.201Z,1.40
2018-02-19T01:51:54.341Z,1.40
2018-02-19T01:54:22.507Z,1.40
2018-02-19T01:56:50.651Z,1.40
2018-02-19T01:59:18.809Z,1.30
2018-02-19T02:01:46.941Z,1.30
2018-02-19T02:04:15.110Z,1.30
2018-02-19T02:06:43.237Z,1.30
2018-02-19T02:09:11.366Z,1.30
2018-02-19T02:11:39.527Z,1.30
2018-02-19T02:14:07.658Z,1.30
2018-02-19T02:16:35.822Z,1.30
2018-02-19T02:19:03.959Z,1.30
2018-02-19T02:21:32.117Z,1.30
2018-02-19T02:24:00.257Z,1.20
2018-02-19T02:26:28.419Z,1.20
2018-02-19T02:28:56.548Z,1.20
2018-02-19T02:31:24.711Z,1.20
2018-02-19T02:33:52.851Z,1.10
2018-02-19T02:36:21.016Z,1.10
2018-02-19T02:38:49.151Z,1.10
2018-02-19T02:41:17.307Z,1.10
2018-02-19T02:43:45.438Z,1.10
2018-02-19T02:46:13.620Z,1.10
2018-02-19T02:48:41.761Z,1.10
2018-02-19T02:51:09.927Z,1.10
2018-02-19T02:53:38.826Z,1.00
2018-02-19T02:56:06.985Z,1.30
2018-02-19T02:58:35.123Z,1.00
2018-02-19T03:01:03.279Z,1.00
2018-02-19T03:03:31.418Z,1.00
2018-02-19T03:05:59.573Z,1.00
2018-02-19T03:08:27.709Z,1.00
2018-02-19T03:10:55.879Z,1.00
2018-02-19T03:13:24.016Z,1.00
2018-02-19T03:15:52.176Z,0.90
2018-02-19T03:18:20.312Z,0.90
2018-02-19T03:20:48.469Z,0.90
2018-02-19T03:23:16.602Z,0.90
2018-02-19T03:25:44.762Z,0.80
2018-02-19T03:28:12.894Z,0.80
2018-02-19T03:30:41.057Z,0.80
2018-02-19T03:33:09.185Z,0.70
2018-02-19T03:35:37.359Z,0.70
2018-02-19T03:38:05.493Z,0.70
2018-02-19T03:40:33.657Z,0.60
2018-02-19T03:43:01.802Z,0.60
2018-02-19T03:45:30.008Z,0.60
2018-02-19T03:47:58.114Z,0.60
2018-02-19T03:50:26.277Z,0.50
2018-02-19T03:52:54.413Z,0.50
2018-02-19T03:55:22.581Z,0.50
2018-02-19T03:57:50.712Z,0.50
2018-02-19T04:00:18.870Z,0.40
2018-02-19T04:02:47.002Z,0.40
2018-02-19T04:05:15.167Z,0.40
2018-02-19T04:07:43.307Z,0.30
2018-02-19T04:10:11.467Z,0.30
2018-02-19T04:12:39.604Z,0.30
2018-02-19T04:15:07.759Z,0.30
2018-02-19T04:17:36.649Z,0.20
2018-02-19T04:20:04.813Z,0.30
2018-02-19T04:22:33.707Z,0.20
2018-02-19T04:25:01.880Z,0.30
2018-02-19T04:27:30.783Z,0.20
2018-02-19T04:29:58.916Z,0.20
2018-02-19T04:32:27.078Z,0.20
2018-02-19T04:34:55.210Z,0.10
2018-02-19T04:37:23.369Z,0.00
2018-02-19T04:39:51.510Z,0.00
2018-02-19T04:42:19.671Z,0.00
2018-02-19T04:44:47.802Z,0.20
2018-02-19T04:47:15.963Z,-0.10
2018-02-19T04:49:44.100Z,-0.10
2018-02-19T04:52:12.264Z,-0.20
2018-02-19T04:54:40.397Z,-0.20
2018-02-19T04:57:08.565Z,-0.30
2018-02-19T04:59:36.712Z,-0.30
2018-02-19T05:02:04.873Z,-0.40
2018-02-19T05:04:33.001Z,-0.40
2018-02-19T05:07:01.174Z,-0.40
2018-02-19T05:09:29.315Z,-0.40
2018-02-19T05:11:58.246Z,-0.40
2018-02-19T05:14:26.383Z,-0.40
2018-02-19T05:16:55.314Z,-0.40
2018-02-19T05:19:23.456Z,-0.20
2018-02-19T05:21:51.623Z,-0.40
2018-02-19T05:24:19.767Z,-0.40
2018-02-19T05:26:47.934Z,-0.40
2018-02-19T05:29:16.074Z,-0.40
2018-02-19T05:31:44.239Z,-0.50
2018-02-19T05:34:12.381Z,-0.50
2018-02-19T05:36:40.546Z,-0.50
2018-02-19T05:39:08.699Z,-0.50
2018-02-19T05:41:36.864Z,-0.50
2018-02-19T05:44:04.997Z,-0.50
2018-02-19T05:46:33.162Z,-0.50
2018-02-19T05:49:01.298Z,-0.50
2018-02-19T05:51:29.465Z,-0.50
2018-02-19T05:53:57.619Z,-0.40
2018-02-19T05:56:25.782Z,-0.40
2018-02-19T05:58:53.928Z,-0.30
2018-02-19T06:01:22.091Z,-0.40
2018-02-19T06:03:50.220Z,-0.40
2018-02-19T06:06:18.402Z,-0.40
2018-02-19T06:08:46.543Z,-0.30
2018-02-19T06:11:14.706Z,-0.40
2018-02-19T06:13:42.846Z,-0.30
2018-02-19T06:16:11.005Z,-0.30
2018-02-19T06:18:39.155Z,-0.10
2018-02-19T06:21:07.335Z,-0.30
2018-02-19T06:23:35.465Z,-0.30
2018-02-19T06:26:03.628Z,-0.30
2018-02-19T06:28:31.796Z,-0.20
2018-02-19T06:30:59.954Z,-0.20
2018-02-19T06:33:28.085Z,-0.20
2018-02-19T06:35:56.273Z,-0.20
2018-02-19T06:38:24.414Z,-0.20
2018-02-19T06:40:52.579Z,-0.20
2018-02-19T06:43:21.519Z,-0.10
2018-02-19T06:45:49.665Z,-0.10
2018-02-19T06:48:17.826Z,-0.20
2018-02-19T06:50:45.958Z,0.00
2018-02-19T06:53:14.116Z,0.00
2018-02-19T06:55:42.248Z,0.10
2018-02-19T06:58:10.412Z,0.10
2018-02-19T07:00:38.598Z,0.20
2018-02-19T07:03:06.754Z,0.20
2018-02-19T07:05:35.679Z,0.30
2018-02-19T07:08:03.842Z,0.40
2018-02-19T07:10:31.974Z,0.40
2018-02-19T07:13:00.138Z,0.50
2018-02-19T07:15:28.274Z,0.50
2018-02-19T07:17:56.433Z,0.50
2018-02-19T07:20:24.561Z,0.60
2018-02-19T07:22:52.730Z,0.70
2018-02-19T07:25:20.863Z,0.70
2018-02-19T07:27:49.021Z,0.80
2018-02-19T07:30:17.156Z,0.90
2018-02-19T07:32:45.324Z,1.00
2018-02-19T07:35:13.459Z,1.00
2018-02-19T07:37:41.613Z,1.10
2018-02-19T07:40:09.756Z,1.20
2018-02-19T07:42:37.917Z,1.20
2018-02-19T07:45:06.076Z,1.20
2018-02-19T07:47:34.241Z,1.30
2018-02-19T07:50:02.378Z,1.30
2018-02-19T07:52:30.541Z,1.40
2018-02-19T07:54:58.747Z,1.40
2018-02-19T07:57:26.906Z,1.50
2018-02-19T07:59:55.035Z,1.60
2018-02-19T08:02:23.251Z,1.60
2018-02-19T08:04:51.350Z,1.60
2018-02-19T08:07:19.510Z,1.70
2018-02-19T08:09:47.648Z,1.80
2018-02-19T08:12:15.836Z,1.80
2018-02-19T08:14:44.734Z,1.90
2018-02-19T08:17:13.157Z,1.90
2018-02-19T08:19:41.306Z,2.00
2018-02-19T08:22:09.479Z,2.10
2018-02-19T08:24:37.673Z,2.10
2018-02-19T08:27:05.789Z,2.20
2018-02-19T08:29:34.681Z,2.20
2018-02-19T08:32:02.848Z,2.20
2018-02-19T08:34:30.990Z,2.20
2018-02-19T08:36:59.145Z,2.30
2018-02-19T08:39:27.277Z,2.40
2018-02-19T08:41:55.444Z,2.50
2018-02-19T08:44:24.347Z,2.70
2018-02-19T08:46:52.521Z,2.70
2018-02-19T08:49:21.423Z,2.80
2018-02-19T08:51:49.589Z,2.80
2018-02-19T08:54:18.482Z,3.00
2018-02-19T08:56:46.643Z,2.90
2018-02-19T08:59:15.547Z,3.10
2018-02-19T09:01:43.717Z,3.10
2018-02-19T09:04:12.628Z,3.30
2018-02-19T09:06:40.766Z,3.20
2018-02-19T09:09:09.690Z,3.30
2018-02-19T09:11:37.966Z,3.30
2018-02-19T09:14:06.447Z,3.30
2018-02-19T09:16:34.657Z,3.30
2018-02-19T09:19:03.021Z,3.30
2018-02-19T09:21:31.155Z,3.40
2018-02-19T09:23:59.596Z,3.50
2018-02-19T09:26:27.890Z,3.50
2018-02-19T09:28:56.096Z,3.50
2018-02-19T09:31:24.229Z,3.60
2018-02-19T09:33:52.393Z,3.70
2018-02-19T09:36:20.528Z,3.80
2018-02-19T09:38:48.684Z,3.90
2018-02-19T09:41:16.818Z,3.90
2018-02-19T09:43:44.989Z,4.10
2018-02-19T09:46:13.124Z,4.10
2018-02-19T09:48:41.289Z,4.10
2018-02-19T09:51:09.439Z,4.20
2018-02-19T09:53:38.367Z,4.40
2018-02-19T09:56:06.839Z,4.30
2018-02-19T09:58:35.004Z,4.50
2018-02-19T10:01:03.142Z,4.60
2018-02-19T10:03:31.300Z,4.70
2018-02-19T10:06:00.316Z,4.80
2018-02-19T10:08:28.478Z,4.80
2018-02-19T10:10:56.609Z,4.80
2018-02-19T10:13:24.777Z,4.90
2018-02-19T10:15:52.906Z,5.00
2018-02-19T10:18:21.075Z,5.00
2018-02-19T10:20:49.207Z,5.10
2018-02-19T10:23:17.370Z,5.20
2018-02-19T10:25:45.505Z,5.30
2018-02-19T10:28:13.676Z,5.40
2018-02-19T10:30:41.814Z,5.50
2018-02-19T10:33:10.762Z,5.50
2018-02-19T10:35:38.906Z,5.50
2018-02-19T10:38:07.071Z,5.60
2018-02-19T10:40:36.586Z,5.60
2018-02-19T10:43:04.773Z,5.60
2018-02-19T10:45:33.679Z,5.70
2018-02-19T10:48:01.860Z,5.60
2018-02-19T10:50:29.998Z,5.70
2018-02-19T10:52:58.162Z,5.60
2018-02-19T10:55:26.321Z,5.60
2018-02-19T10:57:54.489Z,5.60
2018-02-19T11:03:23.557Z,5.50
2018-02-19T11:05:51.717Z,5.50
2018-02-19T11:08:19.877Z,5.40
2018-02-19T11:10:48.009Z,5.40
2018-02-19T11:13:16.180Z,5.30
2018-02-19T11:15:44.318Z,5.40
2018-02-19T11:18:12.500Z,5.40
2018-02-19T11:20:41.406Z,5.30
2018-02-19T11:23:09.562Z,5.30
2018-02-19T11:25:38.466Z,5.40
2018-02-19T11:28:06.632Z,5.30
2018-02-19T11:30:35.533Z,5.40
2018-02-19T11:33:03.686Z,5.40
2018-02-19T11:35:32.692Z,5.50
2018-02-19T11:38:00.863Z,5.50
2018-02-19T11:40:29.001Z,5.60
2018-02-19T11:42:57.165Z,5.60
2018-02-19T11:45:25.310Z,5.60
2018-02-19T11:47:53.461Z,5.70
2018-02-19T11:50:21.598Z,5.70
2018-02-19T11:52:49.762Z,5.60
2018-02-19T11:55:17.895Z,5.60
2018-02-19T11:57:46.055Z,5.60
2018-02-19T12:00:14.195Z,5.70
2018-02-19T12:02:42.354Z,5.70
2018-02-19T12:05:10.518Z,5.80
2018-02-19T12:07:38.651Z,5.70
2018-02-19T12:10:06.818Z,5.80
2018-02-19T12:12:34.963Z,5.70
2018-02-19T12:15:03.113Z,5.70
2018-02-19T12:17:31.255Z,5.70
2018-02-19T12:19:59.416Z,5.70
2018-02-19T12:22:27.553Z,5.60
2018-02-19T12:24:55.710Z,5.70
2018-02-19T12:27:23.857Z,5.60
2018-02-19T12:29:52.051Z,5.60
2018-02-19T12:32:20.173Z,5.70
2018-02-19T12:34:49.097Z,5.80
2018-02-19T12:37:17.226Z,5.80
2018-02-19T12:39:46.150Z,5.90
2018-02-19T12:42:14.286Z,5.80
2018-02-19T12:44:42.446Z,5.90
2018-02-19T12:47:10.584Z,6.00
2018-02-19T12:49:38.750Z,6.00
2018-02-19T12:52:06.877Z,6.00
2018-02-19T12:54:35.054Z,6.10
2018-02-19T12:57:03.205Z,6.10
2018-02-19T12:59:31.369Z,6.20
2018-02-19T13:01:59.503Z,6.30
2018-02-19T13:04:27.674Z,6.30
2018-02-19T13:06:55.811Z,6.40
2018-02-19T13:09:23.974Z,6.40
2018-02-19T13:11:52.107Z,6.50
2018-02-19T13:14:20.300Z,6.50
2018-02-19T13:16:48.441Z,6.60
2018-02-19T13:19:16.597Z,6.70
2018-02-19T13:21:45.499Z,6.80
2018-02-19T13:24:13.662Z,6.80
2018-02-19T13:26:42.571Z,6.90
2018-02-19T13:29:10.951Z,6.90
2018-02-19T13:31:39.087Z,6.90
2018-02-19T13:34:07.259Z,7.00
2018-02-19T13:36:35.389Z,7.00
2018-02-19T13:39:03.564Z,7.00
2018-02-19T13:41:31.706Z,7.00
2018-02-19T13:44:00.651Z,7.00
2018-02-19T13:46:28.785Z,7.00
2018-02-19T13:48:56.958Z,7.00
2018-02-19T13:51:25.109Z,6.90
2018-02-19T13:53:53.289Z,6.90
2018-02-19T13:56:22.189Z,6.70
2018-02-19T13:58:50.350Z,6.70
2018-02-19T14:01:19.256Z,6.70
2018-02-19T14:03:47.425Z,6.60
2018-02-19T14:06:16.321Z,6.60
2018-02-19T14:08:44.490Z,6.60
2018-02-19T14:11:13.415Z,6.50
2018-02-19T14:13:41.582Z,6.50
2018-02-19T14:16:09.726Z,6.50
2018-02-19T14:18:37.915Z,6.50
2018-02-19T14:21:06.061Z,6.40
2018-02-19T14:23:34.995Z,6.30
2018-02-19T14:26:03.170Z,6.30
2018-02-19T14:28:31.306Z,6.20
2018-02-19T14:30:59.470Z,6.10
2018-02-19T14:33:27.616Z,6.00
2018-02-19T14:35:55.796Z,6.00
2018-02-19T14:38:23.929Z,6.00
2018-02-19T14:40:52.089Z,5.90
2018-02-19T14:43:20.231Z,5.90
2018-02-19T14:45:48.458Z,5.80
2018-02-19T14:48:16.604Z,5.80
2018-02-19T14:50:44.765Z,5.80
2018-02-19T14:53:13.671Z,5.70
2018-02-19T14:55:41.830Z,5.70
2018-02-19T14:58:10.838Z,5.60
2018-02-19T15:00:39.007Z,5.60
2018-02-19T15:03:07.174Z,5.60
2018-02-19T15:05:35.329Z,5.60
2018-02-19T15:08:03.469Z,5.60
2018-02-19T15:10:31.642Z,5.60
2018-02-19T15:12:59.865Z,5.60
2018-02-19T15:15:28.824Z,5.50
2018-02-19T15:17:56.969Z,5.50
2018-02-19T15:20:25.128Z,5.50
2018-02-19T15:22:53.266Z,5.50
2018-02-19T15:25:21.446Z,5.50
2018-02-19T15:27:49.626Z,5.50
2018-02-19T15:30:17.786Z,5.40
2018-02-19T15:32:46.002Z,5.40
2018-02-19T15:35:14.210Z,5.40
2018-02-19T15:37:42.375Z,5.40
2018-02-19T15:40:10.541Z,5.30
2018-02-19T15:42:38.758Z,5.30
2018-02-19T15:45:06.963Z,5.30
2018-02-19T15:47:35.106Z,5.20
2018-02-19T15:50:03.280Z,5.20
2018-02-19T15:52:31.530Z,5.20
2018-02-19T15:54:59.938Z,5.10
2018-02-19T15:57:28.103Z,5.10
2018-02-19T15:59:56.290Z,5.00
2018-02-19T16:02:24.422Z,5.00
2018-02-19T16:04:52.596Z,4.90
2018-02-19T16:07:20.777Z,4.90
2018-02-19T16:09:48.948Z,4.80
2018-02-19T16:12:17.078Z,4.80
2018-02-19T16:14:45.238Z,4.70
2018-02-19T16:17:13.370Z,4.70
2018-02-19T16:19:41.550Z,4.60
2018-02-19T16:22:09.737Z,4.60
2018-02-19T16:24:38.050Z,4.50
2018-02-19T16:27:06.226Z,4.40
2018-02-19T16:29:34.396Z,4.40
2018-02-19T16:32:03.336Z,4.20
2018-02-19T16:34:31.543Z,4.20
2018-02-19T16:36:59.773Z,4.10
2018-02-19T16:39:28.002Z,4.10
2018-02-19T16:41:56.154Z,4.00
2018-02-19T16:44:24.324Z,3.90
2018-02-19T16:46:52.505Z,3.90
2018-02-19T16:49:20.685Z,3.80
2018-02-19T16:51:48.941Z,3.70
2018-02-19T16:54:17.130Z,3.70
2018-02-19T16:56:45.312Z,3.60
2018-02-19T16:59:13.477Z,3.60
2018-02-19T17:01:41.758Z,3.50
2018-02-19T17:04:10.004Z,3.40
2018-02-19T17:06:38.202Z,3.30
2018-02-19T17:09:06.528Z,3.30
2018-02-19T17:11:34.729Z,3.20
2018-02-19T17:14:02.867Z,3.20
2018-02-19T17:16:31.137Z,3.10
2018-02-19T17:19:00.044Z,3.10
2018-02-19T17:21:28.204Z,3.10
2018-02-19T17:23:57.102Z,3.00
2018-02-19T17:26:25.283Z,3.00
2018-02-19T17:28:53.413Z,2.90
2018-02-19T17:31:21.619Z,2.90
2018-02-19T17:33:49.755Z,2.90
2018-02-19T17:36:17.917Z,2.80
2018-02-19T17:38:46.050Z,2.80
2018-02-19T17:41:14.214Z,2.80
2018-02-19T17:43:42.386Z,2.70
2018-02-19T17:46:10.546Z,2.70
2018-02-19T17:48:38.679Z,2.70
2018-02-19T17:51:06.841Z,2.60
2018-02-19T17:53:35.107Z,2.60
2018-02-19T17:56:03.385Z,2.60
2018-02-19T17:58:31.768Z,2.50
2018-02-19T18:01:00.694Z,2.50
2018-02-19T18:03:29.912Z,2.50
2018-02-19T18:05:58.675Z,2.40
2018-02-19T18:08:27.645Z,2.40
2018-02-19T18:10:55.824Z,2.40
2018-02-19T18:13:23.953Z,2.40
2018-02-19T18:15:52.115Z,2.40
2018-02-19T18:18:21.535Z,2.40
2018-02-19T18:20:49.796Z,2.30
2018-02-19T18:23:18.104Z,2.30
2018-02-19T18:25:46.375Z,2.30
2018-02-19T18:28:14.712Z,2.30
2018-02-19T18:30:43.068Z,2.30
2018-02-19T18:33:11.445Z,2.30
2018-02-19T18:35:39.677Z,2.20
2018-02-19T18:38:07.983Z,2.20
2018-02-19T18:40:36.282Z,2.10
2018-02-19T18:43:04.726Z,2.10
2018-02-19T18:45:33.431Z,2.10
2018-02-19T18:48:01.780Z,2.10
2018-02-19T18:50:30.772Z,2.10
2018-02-19T18:52:59.693Z,2.10
2018-02-19T18:55:27.865Z,2.10
2018-02-19T18:57:56.237Z,2.00
2018-02-19T19:00:24.681Z,2.00
2018-02-19T19:02:53.374Z,2.00
2018-02-19T19:05:22.272Z,2.00
2018-02-19T19:08:02.324Z,2.00
2018-02-19T19:13:35.841Z,2.00
2018-02-19T19:16:04.107Z,2.00
2018-02-19T19:18:32.248Z,2.00
2018-02-19T19:21:00.417Z,2.00
2018-02-19T19:23:28.635Z,2.00
2018-02-19T19:25:56.805Z,2.00
2018-02-19T19:28:24.954Z,1.90
2018-02-19T19:30:53.356Z,1.90
2018-02-19T19:33:22.269Z,1.80
2018-02-19T19:35:50.459Z,1.90
2018-02-19T19:38:18.671Z,1.80
2018-02-19T19:40:48.205Z,1.80
2018-02-19T19:43:18.340Z,1.80
2018-02-19T19:45:46.586Z,1.70
2018-02-19T19:48:14.859Z,1.70
2018-02-19T19:50:43.083Z,1.70
2018-02-19T19:53:11.246Z,1.70
2018-02-19T19:55:39.386Z,1.70
2018-02-19T19:58:07.603Z,1.70
2018-02-19T20:00:35.881Z,1.60
2018-02-19T20:03:04.223Z,1.60
2018-02-19T20:05:32.808Z,1.60
2018-02-19T20:08:01.759Z,1.60
2018-02-19T20:10:30.922Z,1.60
2018-02-19T20:12:59.143Z,1.50
2018-02-19T20:15:27.289Z,1.60
2018-02-19T20:17:55.641Z,1.50
2018-02-19T20:20:24.173Z,1.50
2018-02-19T20:22:52.461Z,1.50
2018-02-19T20:25:22.211Z,1.40
2018-02-19T20:27:50.397Z,1.40
2018-02-19T20:30:18.860Z,1.40
2018-02-19T20:32:47.054Z,1.40
2018-02-19T20:35:15.204Z,1.40
2018-02-19T20:37:43.368Z,1.30
2018-02-19T20:40:11.505Z,1.30
2018-02-19T20:42:39.802Z,1.30
2018-02-19T20:45:08.012Z,1.30
2018-02-19T20:47:36.181Z,1.30
2018-02-19T20:50:04.363Z,1.30
2018-02-19T20:52:33.350Z,1.20
2018-02-19T20:55:01.490Z,1.20
2018-02-19T20:57:29.668Z,1.20
2018-02-19T20:59:58.599Z,1.10
2018-02-19T21:02:26.762Z,1.10
2018-02-19T21:04:54.942Z,1.10
2018-02-19T21:07:23.099Z,1.10
2018-02-19T21:09:51.234Z,1.10
2018-02-19T21:12:19.397Z,1.00
2018-02-19T21:14:47.533Z,1.00
2018-02-19T21:17:15.713Z,1.00
2018-02-19T21:19:43.850Z,1.00
2018-02-19T21:22:12.773Z,0.90
2018-02-19T21:24:40.905Z,0.90
2018-02-19T21:27:09.099Z,0.90
2018-02-19T21:29:37.229Z,0.80
2018-02-19T21:32:05.461Z,0.80
2018-02-19T21:34:33.614Z,0.80
2018-02-19T21:37:01.774Z,0.70
2018-02-19T21:39:29.905Z,0.70
2018-02-19T21:41:58.065Z,0.70
2018-02-19T21:44:26.210Z,0.70
2018-02-19T21:46:54.369Z,0.60
2018-02-19T21:49:22.502Z,0.60
2018-02-19T21:51:50.678Z,0.50
2018-02-19T21:54:18.826Z,0.50
2018-02-19T21:56:46.981Z,0.50
2018-02-19T21:59:15.112Z,0.50
2018-02-19T22:01:43.264Z,0.40
2018-02-19T22:04:11.469Z,0.40
2018-02-19T22:06:39.625Z,0.40
2018-02-19T22:09:07.755Z,0.40
2018-02-19T22:11:35.913Z,0.50
2018-02-19T22:14:04.057Z,0.30
2018-02-19T22:16:32.234Z,0.30
2018-02-19T22:19:00.376Z,0.30
2018-02-19T22:21:28.512Z,0.30
2018-02-19T22:23:56.669Z,0.30
2018-02-19T22:26:24.806Z,0.30
2018-02-19T22:28:52.969Z,0.20
2018-02-19T22:31:21.145Z,0.30
2018-02-19T22:33:49.301Z,0.20
2018-02-19T22:36:17.437Z,0.20
2018-02-19T22:38:45.593Z,0.20
2018-02-19T22:41:13.733Z,0.10
2018-02-19T22:43:41.896Z,0.30
2018-02-19T22:46:10.029Z,0.10
2018-02-19T22:48:38.190Z,0.10
2018-02-19T22:51:06.325Z,0.10
2018-02-19T22:53:34.485Z,0.00
2018-02-19T22:56:02.614Z,0.00
2018-02-19T22:58:30.800Z,0.00
2018-02-19T23:00:58.941Z,-0.10
2018-02-19T23:03:27.123Z,-0.10
2018-02-19T23:05:55.252Z,-0.20
2018-02-19T23:08:23.418Z,-0.30
2018-02-19T23:10:51.555Z,-0.20
2018-02-19T23:13:19.723Z,-0.30
2018-02-19T23:15:47.862Z,-0.30
2018-02-19T23:18:16.022Z,-0.40
2018-02-19T23:20:44.163Z,-0.30
2018-02-19T23:23:12.331Z,-0.30
2018-02-19T23:25:40.481Z,-0.40
2018-02-19T23:28:08.650Z,-0.40
2018-02-19T23:30:36.815Z,-0.40
2018-02-19T23:33:04.987Z,-0.50
2018-02-19T23:35:33.128Z,-0.50
2018-02-19T23:38:01.292Z,-0.50
2018-02-19T23:40:29.420Z,-0.60
2018-02-19T23:42:57.595Z,-0.60
2018-02-19T23:45:25.737Z,-0.60
2018-02-19T23:47:53.901Z,-0.70
2018-02-19T23:50:22.039Z,-0.70
2018-02-19T23:52:50.983Z,-0.80
2018-02-19T23:55:19.122Z,-0.80
2018-02-19T23:57:48.053Z,-0.90
